Time;durP1;ratioP1;P1;durP2;ratioP2;P2;SDS_P1;SDS_P2;PMS_P1;PMS_P2;Temp;Humidity;BMP_temperature;BMP_pressure;BME280_temperature;BME280_humidity;BME280_pressure;Samples;Min_cycle;Max_cycle;Signal;HPM_P1;HPM_P2
2022/11/25 00:01:14;;;;;;;18.00;11.80;;;8.70;99.90;;;;;;5072288;28;20029;-78
2022/11/25 00:03:41;;;;;;;17.17;11.27;;;8.60;99.90;;;;;;5084627;28;20032;-78
2022/11/25 00:06:34;;;;;;;17.30;10.65;;;8.70;99.90;;;;;;5071222;28;20038;-78
2022/11/25 00:09:04;;;;;;;18.42;10.95;;;8.40;99.90;;;;;;5072553;28;20185;-78
2022/11/25 00:11:34;;;;;;;19.92;10.50;;;8.60;99.90;;;;;;5091361;28;20031;-78
2022/11/25 00:14:00;;;;;;;16.60;10.35;;;8.40;99.90;;;;;;5090397;28;20020;-78
2022/11/25 00:16:25;;;;;;;19.40;10.85;;;8.50;99.90;;;;;;5091899;28;20046;-77
2022/11/25 00:18:53;;;;;;;18.25;11.05;;;8.40;99.90;;;;;;5090069;28;20493;-77
2022/11/25 00:21:24;;;;;;;20.50;10.38;;;8.20;99.90;;;;;;5091565;28;20032;-77
2022/11/25 00:23:55;;;;;;;17.02;9.05;;;8.20;99.90;;;;;;5089947;28;20077;-77
2022/11/25 00:26:22;;;;;;;17.15;10.00;;;8.30;99.90;;;;;;5091655;28;20095;-77
2022/11/25 00:28:48;;;;;;;14.60;9.15;;;8.30;99.90;;;;;;5091173;28;20028;-77
2022/11/25 00:31:22;;;;;;;13.68;8.25;;;8.20;99.90;;;;;;5091727;28;20020;-77
2022/11/25 00:33:48;;;;;;;16.23;9.10;;;8.10;99.90;;;;;;5078863;28;20103;-77
2022/11/25 00:36:25;;;;;;;19.27;9.85;;;8.10;99.90;;;;;;5070823;28;20098;-77
2022/11/25 00:38:59;;;;;;;17.48;9.43;;;8.10;99.90;;;;;;5071459;28;20147;-77
2022/11/25 00:46:56;;;;;;;16.15;9.50;;;8.10;99.90;;;;;;5092034;28;20113;-77
2022/11/25 00:49:22;;;;;;;18.60;9.95;;;8.00;99.90;;;;;;5070625;28;20067;-78
2022/11/25 00:51:48;;;;;;;18.50;9.50;;;7.90;99.90;;;;;;5070784;28;20160;-78
2022/11/25 00:54:14;;;;;;;14.52;8.57;;;8.00;99.90;;;;;;5069709;28;20561;-77
2022/11/25 00:56:40;;;;;;;15.48;8.57;;;8.00;99.90;;;;;;5070252;28;20504;-78
2022/11/25 00:59:06;;;;;;;14.73;8.35;;;8.00;99.90;;;;;;5069282;28;20520;-77
2022/11/25 01:01:32;;;;;;;13.02;7.95;;;7.90;99.90;;;;;;5070907;28;20021;-78
2022/11/25 01:03:58;;;;;;;13.93;7.95;;;7.80;99.90;;;;;;5081812;28;20020;-78
2022/11/25 01:06:24;;;;;;;10.35;6.97;;;7.80;99.90;;;;;;5070078;28;20029;-77
2022/11/25 01:08:50;;;;;;;12.73;7.63;;;7.90;99.90;;;;;;5070338;28;20489;-78
2022/11/25 01:11:19;;;;;;;11.00;6.75;;;7.80;99.90;;;;;;5070737;28;20029;-77
2022/11/25 01:13:45;;;;;;;11.27;6.70;;;7.80;99.90;;;;;;5070585;28;20096;-77
2022/11/25 01:16:14;;;;;;;14.07;7.20;;;7.80;99.90;;;;;;5084231;28;20016;-78
2022/11/25 01:18:40;;;;;;;12.00;7.60;;;7.70;99.90;;;;;;5068999;28;20028;-78
2022/11/25 01:21:07;;;;;;;11.38;6.10;;;7.70;99.90;;;;;;5072442;28;20024;-78
2022/11/25 01:23:33;;;;;;;10.45;7.07;;;7.70;99.90;;;;;;5081504;28;20035;-77
2022/11/25 01:26:07;;;;;;;13.50;6.95;;;7.70;99.90;;;;;;5072060;28;20041;-78
2022/11/25 01:28:34;;;;;;;9.88;6.88;;;7.70;99.90;;;;;;5090539;28;20149;-77
2022/11/25 01:31:01;;;;;;;11.23;6.47;;;7.70;99.90;;;;;;5072157;28;20541;-77
2022/11/25 01:33:31;;;;;;;8.52;6.15;;;7.80;99.90;;;;;;5070420;28;20025;-78
2022/11/25 01:36:16;;;;;;;8.60;5.95;;;7.70;99.90;;;;;;5070877;28;20082;-77
2022/11/25 01:38:42;;;;;;;10.20;5.90;;;7.70;99.90;;;;;;5083660;28;20024;-77
2022/11/25 01:41:13;;;;;;;8.73;5.82;;;7.70;99.90;;;;;;5070460;28;20070;-78
2022/11/25 01:43:39;;;;;;;9.88;6.30;;;7.60;99.90;;;;;;5070044;28;20085;-77
2022/11/25 01:46:24;;;;;;;7.75;5.50;;;7.70;99.90;;;;;;5070100;28;20024;-77
2022/11/25 01:48:58;;;;;;;8.82;5.78;;;7.70;99.90;;;;;;5087091;28;20048;-77
2022/11/25 01:51:49;;;;;;;7.93;5.00;;;7.70;99.90;;;;;;5090403;28;20035;-77
2022/11/25 01:54:19;;;;;;;8.47;5.27;;;7.70;99.90;;;;;;5069658;28;20047;-77
2022/11/25 01:56:56;;;;;;;8.50;5.47;;;7.60;99.90;;;;;;5070403;28;20501;-77
2022/11/25 01:59:23;;;;;;;7.38;5.90;;;7.70;99.90;;;;;;5068243;28;20029;-78
2022/11/25 02:01:49;;;;;;;7.47;5.15;;;7.60;99.90;;;;;;5082723;28;20042;-78
2022/11/25 02:04:18;;;;;;;8.75;5.32;;;7.60;99.90;;;;;;5081002;28;20017;-77
2022/11/25 02:06:53;;;;;;;6.45;5.28;;;7.80;99.90;;;;;;5071025;28;20111;-78
2022/11/25 02:09:20;;;;;;;7.72;5.43;;;7.60;99.90;;;;;;5072736;28;20025;-78
2022/11/25 02:11:48;;;;;;;8.50;5.53;;;7.50;99.90;;;;;;5073706;28;20025;-78
2022/11/25 02:14:16;;;;;;;8.07;5.55;;;7.60;99.90;;;;;;5073391;28;20021;-78
2022/11/25 02:16:42;;;;;;;8.60;5.43;;;7.60;99.90;;;;;;5073191;28;20050;-78
2022/11/25 02:19:24;;;;;;;9.10;5.72;;;7.40;99.90;;;;;;5074385;28;20203;-78
2022/11/25 02:21:59;;;;;;;8.63;5.55;;;7.40;99.90;;;;;;5073755;28;20025;-78
2022/11/25 02:24:44;;;;;;;8.23;5.25;;;7.30;99.90;;;;;;5073327;28;20159;-77
2022/11/25 02:27:10;;;;;;;11.75;5.55;;;7.20;99.90;;;;;;5083599;28;20024;-77
2022/11/25 02:29:36;;;;;;;8.00;5.00;;;7.30;99.90;;;;;;5093866;28;20032;-77
2022/11/25 02:32:02;;;;;;;8.30;5.65;;;7.20;99.90;;;;;;5093934;28;20073;-78
2022/11/25 02:34:28;;;;;;;9.05;5.93;;;7.20;99.90;;;;;;5092394;28;20604;-78
2022/11/25 02:36:54;;;;;;;8.98;5.78;;;7.20;99.90;;;;;;5093447;28;20013;-78
2022/11/25 02:39:20;;;;;;;7.40;5.20;;;7.20;99.90;;;;;;5092305;28;20493;-78
2022/11/25 02:41:56;;;;;;;10.02;5.53;;;7.10;99.90;;;;;;5093301;28;20096;-77
2022/11/25 02:44:21;;;;;;;8.05;5.25;;;7.10;99.90;;;;;;5093394;28;20558;-78
2022/11/25 02:46:47;;;;;;;10.07;5.85;;;7.10;99.90;;;;;;5093071;28;20091;-77
2022/11/25 02:49:13;;;;;;;8.30;5.25;;;7.00;99.90;;;;;;5092134;28;20020;-77
2022/11/25 02:51:42;;;;;;;9.95;5.53;;;7.00;99.90;;;;;;5093465;28;20024;-78
2022/11/25 02:54:09;;;;;;;9.95;5.97;;;7.00;99.90;;;;;;5093351;28;20103;-77
2022/11/25 02:56:35;;;;;;;8.80;5.65;;;6.90;99.90;;;;;;5093361;28;20020;-77
2022/11/25 02:59:02;;;;;;;9.48;6.20;;;7.00;99.90;;;;;;5075746;28;20056;-77
2022/11/25 03:01:29;;;;;;;10.60;6.45;;;7.10;99.90;;;;;;5072982;28;20024;-77
2022/11/25 03:03:56;;;;;;;12.27;7.05;;;7.20;99.90;;;;;;5084347;28;20271;-77
2022/11/25 03:06:22;;;;;;;9.10;5.65;;;7.20;99.90;;;;;;5073264;28;20059;-77
2022/11/25 03:08:48;;;;;;;10.25;6.03;;;7.20;99.90;;;;;;5072831;28;20434;-78
2022/11/25 03:11:14;;;;;;;10.40;6.72;;;7.30;99.90;;;;;;5072982;28;20028;-78
2022/11/25 03:13:40;;;;;;;9.23;5.72;;;7.30;99.90;;;;;;5072982;28;20071;-77
2022/11/25 03:16:06;;;;;;;8.95;6.28;;;7.30;99.90;;;;;;5073136;28;20036;-77
2022/11/25 03:18:32;;;;;;;8.98;5.78;;;7.40;99.90;;;;;;5072099;28;20020;-77
2022/11/25 03:20:57;;;;;;;7.13;5.53;;;7.40;99.90;;;;;;5072521;28;20024;-78
2022/11/25 03:23:23;;;;;;;9.55;5.75;;;7.40;99.90;;;;;;5070928;28;20094;-78
2022/11/25 03:25:49;;;;;;;7.45;5.28;;;7.50;99.90;;;;;;5072985;28;20048;-77
2022/11/25 03:28:15;;;;;;;8.70;5.93;;;7.40;99.90;;;;;;5092564;28;20077;-77
2022/11/25 03:30:42;;;;;;;9.48;5.72;;;7.40;99.90;;;;;;5092546;28;20027;-77
2022/11/25 03:33:08;;;;;;;9.07;5.50;;;7.40;99.90;;;;;;5092670;28;20031;-77
2022/11/25 03:35:33;;;;;;;7.63;5.45;;;7.50;99.90;;;;;;5092317;28;20027;-77
2022/11/25 03:37:59;;;;;;;7.75;4.97;;;7.50;99.90;;;;;;5092109;28;20477;-77
2022/11/25 03:40:25;;;;;;;6.93;4.95;;;7.30;99.90;;;;;;5092887;28;20377;-77
2022/11/25 03:42:50;;;;;;;6.97;5.05;;;7.40;99.90;;;;;;5092077;28;20028;-77
2022/11/25 03:45:16;;;;;;;7.13;5.15;;;7.50;99.90;;;;;;5092250;28;20115;-78
2022/11/25 03:47:43;;;;;;;6.75;4.65;;;7.50;99.90;;;;;;5092274;28;20435;-78
2022/11/25 03:50:12;;;;;;;6.55;4.70;;;7.50;99.90;;;;;;5090746;28;20558;-78
2022/11/25 03:52:38;;;;;;;7.22;4.82;;;7.40;99.90;;;;;;5092269;28;20032;-78
2022/11/25 03:55:05;;;;;;;5.20;4.18;;;7.40;99.90;;;;;;5090427;28;20028;-77
2022/11/25 03:57:31;;;;;;;5.85;4.35;;;7.40;99.90;;;;;;5087335;28;20031;-77
2022/11/25 03:59:56;;;;;;;6.25;4.90;;;7.30;99.90;;;;;;5070560;28;20029;-77
2022/11/25 04:02:22;;;;;;;6.50;4.93;;;7.20;99.90;;;;;;5075802;28;20024;-77
2022/11/25 04:04:48;;;;;;;5.65;3.72;;;7.20;99.90;;;;;;5077828;28;20109;-78
2022/11/25 04:07:13;;;;;;;7.28;4.72;;;7.20;99.90;;;;;;5071554;28;20028;-78
2022/11/25 04:09:39;;;;;;;6.85;4.75;;;7.20;99.90;;;;;;5071728;28;20506;-78
2022/11/25 04:14:49;;;;;;;7.07;4.88;;;7.10;99.90;;;;;;5071595;28;20459;-77
2022/11/25 04:17:15;;;;;;;5.93;4.38;;;7.20;99.90;;;;;;5071757;28;20032;-77
2022/11/25 04:19:40;;;;;;;6.38;4.40;;;7.20;99.90;;;;;;5070991;28;20506;-77
2022/11/25 04:22:07;;;;;;;6.10;4.10;;;7.20;99.90;;;;;;5070288;28;20036;-77
2022/11/25 04:24:32;;;;;;;5.72;4.72;;;7.00;99.90;;;;;;5071150;28;20132;-77
2022/11/25 04:26:58;;;;;;;6.35;4.45;;;7.00;99.90;;;;;;5081391;28;20709;-77
2022/11/25 04:29:24;;;;;;;6.53;4.15;;;7.00;99.90;;;;;;5091279;28;20030;-78
2022/11/25 04:31:49;;;;;;;5.35;4.45;;;7.10;99.90;;;;;;5090970;28;20496;-77
2022/11/25 04:34:15;;;;;;;6.90;4.63;;;7.10;99.90;;;;;;5091353;28;20085;-77
2022/11/25 04:36:40;;;;;;;9.80;4.28;;;7.10;99.90;;;;;;5091118;28;20024;-77
2022/11/25 04:39:06;;;;;;;4.95;4.07;;;7.00;99.90;;;;;;5091729;28;20481;-78
2022/11/25 04:41:32;;;;;;;6.50;4.13;;;7.00;99.90;;;;;;5091071;28;20028;-77
2022/11/25 04:44:01;;;;;;;7.38;4.15;;;6.90;99.90;;;;;;5091052;28;20027;-78
2022/11/25 04:46:35;;;;;;;6.18;4.28;;;7.00;99.90;;;;;;5091009;28;20104;-78
2022/11/25 04:49:00;;;;;;;6.20;4.30;;;7.00;99.90;;;;;;5089369;28;20111;-78
2022/11/25 04:51:26;;;;;;;5.22;3.63;;;7.10;99.90;;;;;;5091650;28;20103;-77
2022/11/25 04:53:52;;;;;;;4.97;3.72;;;7.10;99.90;;;;;;5090981;28;20031;-77
2022/11/25 04:56:20;;;;;;;5.85;3.95;;;7.00;99.90;;;;;;5091092;28;20032;-77
2022/11/25 05:01:30;;;;;;;6.22;3.55;;;6.90;99.90;;;;;;5071036;28;20463;-78
2022/11/25 05:03:56;;;;;;;5.53;3.55;;;7.00;99.90;;;;;;5082902;28;20140;-77
2022/11/25 05:06:22;;;;;;;6.28;3.95;;;6.90;99.90;;;;;;5070466;28;20033;-77
2022/11/25 05:08:49;;;;;;;3.67;3.30;;;6.80;99.90;;;;;;5070357;28;20044;-77
2022/11/25 05:11:14;;;;;;;4.57;3.40;;;6.80;99.90;;;;;;5070705;28;20024;-77
2022/11/25 05:13:40;;;;;;;5.28;3.25;;;6.90;99.90;;;;;;5070974;28;20537;-77
2022/11/25 05:16:06;;;;;;;4.68;3.53;;;6.90;99.90;;;;;;5069220;28;20033;-77
2022/11/25 05:18:32;;;;;;;4.95;3.10;;;7.10;99.90;;;;;;5070394;28;20024;-77
2022/11/25 05:21:02;;;;;;;4.97;3.35;;;7.00;99.90;;;;;;5070697;28;20040;-78
2022/11/25 05:23:28;;;;;;;3.78;3.20;;;6.90;99.90;;;;;;5077746;28;20107;-77
2022/11/25 05:26:01;;;;;;;4.45;3.17;;;7.00;99.90;;;;;;5090033;28;20481;-77
2022/11/25 05:28:28;;;;;;;3.30;2.67;;;6.90;99.90;;;;;;5089221;28;20020;-77
2022/11/25 05:30:53;;;;;;;3.72;2.92;;;6.90;99.90;;;;;;5090246;28;20103;-77
2022/11/25 05:33:19;;;;;;;4.40;2.75;;;6.90;99.90;;;;;;5090749;28;20104;-78
2022/11/25 05:35:56;;;;;;;4.32;2.83;;;6.90;99.90;;;;;;5090265;28;20031;-78
2022/11/25 05:38:22;;;;;;;4.45;3.25;;;6.90;99.90;;;;;;5090399;28;20111;-77
2022/11/25 05:40:47;;;;;;;4.22;2.70;;;6.80;99.90;;;;;;5088783;28;20120;-77
2022/11/25 05:43:13;;;;;;;3.13;2.67;;;6.80;99.90;;;;;;5093466;28;20133;-77
2022/11/25 05:45:38;;;;;;;3.63;2.45;;;6.80;99.90;;;;;;5094297;28;20028;-78
2022/11/25 05:48:04;;;;;;;4.07;2.80;;;6.80;99.90;;;;;;5095003;28;20472;-77
2022/11/25 05:50:30;;;;;;;3.47;2.35;;;6.90;99.90;;;;;;5094266;28;20597;-78
2022/11/25 05:52:56;;;;;;;3.10;2.15;;;6.80;99.90;;;;;;5094498;28;20082;-78
2022/11/25 05:55:21;;;;;;;3.15;2.30;;;6.90;99.90;;;;;;5084198;28;20060;-78
2022/11/25 05:57:47;;;;;;;3.72;2.35;;;6.80;99.90;;;;;;5082469;28;20566;-77
2022/11/25 06:00:13;;;;;;;3.70;2.53;;;6.80;99.90;;;;;;5090443;28;20517;-77
2022/11/25 06:02:39;;;;;;;3.33;2.42;;;6.90;99.90;;;;;;5080793;28;20032;-78
2022/11/25 06:05:05;;;;;;;3.28;2.30;;;7.00;99.90;;;;;;5090170;28;20024;-78
2022/11/25 06:07:31;;;;;;;3.22;2.00;;;7.00;99.90;;;;;;5083440;28;20020;-78
2022/11/25 06:09:56;;;;;;;3.13;2.03;;;7.00;99.90;;;;;;5081114;28;20505;-78
2022/11/25 06:12:22;;;;;;;2.28;1.95;;;7.00;99.90;;;;;;5085419;28;20343;-78
2022/11/25 06:14:49;;;;;;;2.47;1.90;;;7.00;99.90;;;;;;5087871;28;20028;-78
2022/11/25 06:17:15;;;;;;;3.42;2.10;;;7.00;99.90;;;;;;5083365;28;20028;-77
2022/11/25 06:19:41;;;;;;;2.85;2.05;;;6.90;99.90;;;;;;5092024;28;20448;-78
2022/11/25 06:22:06;;;;;;;2.72;2.03;;;6.90;99.90;;;;;;5082708;28;20024;-78
2022/11/25 06:24:32;;;;;;;1.90;1.67;;;6.90;99.90;;;;;;5078167;28;20127;-78
2022/11/25 06:26:59;;;;;;;3.33;1.98;;;6.80;99.90;;;;;;5083345;28;20111;-78
2022/11/25 06:29:25;;;;;;;3.92;2.50;;;6.80;99.90;;;;;;5078082;28;20221;-77
2022/11/25 06:31:50;;;;;;;2.88;2.08;;;6.70;99.90;;;;;;5083669;28;20018;-78
2022/11/25 06:34:16;;;;;;;5.70;2.50;;;6.60;99.90;;;;;;5079089;28;20398;-78
2022/11/25 06:36:42;;;;;;;3.22;1.70;;;6.70;99.90;;;;;;5083301;28;20154;-77
2022/11/25 06:39:08;;;;;;;3.13;2.30;;;6.70;99.90;;;;;;5089892;28;20027;-78
2022/11/25 06:41:34;;;;;;;3.35;2.17;;;6.70;99.90;;;;;;5094330;28;20512;-78
2022/11/25 06:43:59;;;;;;;4.45;2.20;;;6.80;99.90;;;;;;5080544;28;20028;-78
2022/11/25 06:46:25;;;;;;;6.00;2.30;;;6.80;99.90;;;;;;5083754;28;20078;-77
2022/11/25 06:48:52;;;;;;;2.90;2.55;;;6.70;99.90;;;;;;5087834;28;20485;-78
2022/11/25 06:51:18;;;;;;;6.05;2.78;;;6.80;99.90;;;;;;5082345;28;20051;-77
2022/11/25 06:53:44;;;;;;;3.35;2.35;;;6.70;99.90;;;;;;5078875;28;20624;-77
2022/11/25 06:56:22;;;;;;;4.50;2.65;;;6.70;99.90;;;;;;5084925;28;20056;-78
2022/11/25 06:58:50;;;;;;;3.25;2.50;;;6.80;99.90;;;;;;5079489;28;20030;-78
2022/11/25 07:01:22;;;;;;;6.50;3.10;;;6.90;99.90;;;;;;5081368;28;20103;-78
2022/11/25 07:03:49;;;;;;;;;;;7.10;99.90;;;;;;5091466;28;20036;-78
2022/11/25 07:06:16;;;;;;;4.82;3.25;;;7.10;99.90;;;;;;5081240;28;20003;-78
2022/11/25 07:08:42;;;;;;;7.22;3.42;;;7.00;99.90;;;;;;5086599;28;20016;-78
2022/11/25 07:11:31;;;;;;;4.20;3.28;;;7.00;99.90;;;;;;5085521;28;20051;-78
2022/11/25 07:14:02;;;;;;;6.05;3.00;;;7.10;99.90;;;;;;5081847;28;20084;-77
2022/11/25 07:16:29;;;;;;;6.25;3.35;;;7.30;99.90;;;;;;5076866;28;20040;-78
2022/11/25 07:18:54;;;;;;;4.15;3.00;;;7.40;99.90;;;;;;5098931;28;20012;-78
2022/11/25 07:21:22;;;;;;;4.72;3.10;;;7.40;99.90;;;;;;5099460;28;20586;-78
2022/11/25 07:23:50;;;;;;;5.47;3.05;;;7.50;99.90;;;;;;5092855;28;20147;-79
2022/11/25 07:26:20;;;;;;;3.10;2.63;;;7.70;99.90;;;;;;5079659;28;20028;-78
2022/11/25 07:28:46;;;;;;;4.18;2.63;;;8.10;99.90;;;;;;5077807;28;20036;-77
2022/11/25 07:31:22;;;;;;;5.28;3.10;;;8.40;99.90;;;;;;5086174;28;20578;-77
2022/11/25 07:33:54;;;;;;;4.43;2.88;;;8.60;99.90;;;;;;5079527;28;20114;-77
2022/11/25 07:36:20;;;;;;;6.72;2.92;;;8.70;99.90;;;;;;5088042;28;20119;-77
2022/11/25 07:38:46;;;;;;;5.75;2.90;;;8.80;99.90;;;;;;5078258;28;20482;-77
2022/11/25 07:41:19;;;;;;;6.72;2.65;;;8.80;99.90;;;;;;5072502;28;20029;-77
2022/11/25 07:43:47;;;;;;;5.22;2.58;;;8.90;99.90;;;;;;5076844;28;20035;-77
2022/11/25 07:46:14;;;;;;;5.97;3.30;;;8.90;99.90;;;;;;5071885;28;20027;-77
2022/11/25 07:48:40;;;;;;;6.22;2.60;;;9.00;99.90;;;;;;5090610;28;20039;-77
2022/11/25 07:51:26;;;;;;;5.15;2.30;;;9.00;99.90;;;;;;5084528;28;20029;-77
2022/11/25 07:53:54;;;;;;;6.68;2.78;;;9.10;99.90;;;;;;5071033;28;20048;-77
2022/11/25 07:56:20;;;;;;;5.50;2.50;;;9.10;99.90;;;;;;5072199;28;20036;-77
2022/11/25 07:58:46;;;;;;;8.57;3.53;;;9.10;99.90;;;;;;5073812;28;20021;-78
2022/11/25 08:01:14;;;;;;;9.52;2.72;;;9.10;99.90;;;;;;5071075;28;20028;-78
2022/11/25 08:03:41;;;;;;;5.53;2.78;;;9.10;99.90;;;;;;5083117;28;20039;-78
2022/11/25 08:06:09;;;;;;;4.90;2.63;;;9.20;99.90;;;;;;5081329;28;20028;-77
2022/11/25 08:08:36;;;;;;;4.95;2.40;;;9.20;99.90;;;;;;5076240;28;20565;-78
2022/11/25 08:11:11;;;;;;;6.85;2.60;;;9.20;99.90;;;;;;5072429;28;20020;-78
2022/11/25 08:13:37;;;;;;;7.40;3.08;;;9.20;99.90;;;;;;5081962;28;20036;-78
2022/11/25 08:16:04;;;;;;;5.85;3.08;;;9.20;99.90;;;;;;5070470;28;20054;-78
2022/11/25 08:18:30;;;;;;;10.13;3.42;;;9.30;99.90;;;;;;5082599;28;20530;-79
2022/11/25 08:21:00;;;;;;;7.88;2.83;;;9.20;99.90;;;;;;5082363;28;20032;-78
2022/11/25 08:23:26;;;;;;;5.63;2.70;;;9.20;99.90;;;;;;5082180;28;20413;-78
2022/11/25 08:25:53;;;;;;;6.70;3.35;;;9.30;99.90;;;;;;5081636;28;20054;-78
2022/11/25 08:28:19;;;;;;;5.47;2.53;;;9.30;99.90;;;;;;5081495;28;20058;-78
2022/11/25 08:30:44;;;;;;;5.75;2.50;;;9.30;99.90;;;;;;5080271;28;20516;-78
2022/11/25 08:33:10;;;;;;;7.05;2.92;;;9.30;99.90;;;;;;5080686;28;20059;-78
2022/11/25 08:35:36;;;;;;;3.33;2.15;;;9.30;99.90;;;;;;5070183;28;20032;-78
2022/11/25 08:38:08;;;;;;;2.67;2.05;;;9.20;99.90;;;;;;5070997;28;20031;-78
2022/11/25 08:40:35;;;;;;;3.13;1.98;;;9.30;99.90;;;;;;5085082;28;20085;-78
2022/11/25 08:43:02;;;;;;;3.08;2.00;;;9.30;99.90;;;;;;5071403;28;20024;-79
2022/11/25 08:45:28;;;;;;;2.83;1.80;;;9.40;99.90;;;;;;5075311;28;20025;-79
2022/11/25 08:47:54;;;;;;;1.75;1.63;;;9.50;99.90;;;;;;5091094;28;20020;-79
2022/11/25 08:50:23;;;;;;;2.45;1.55;;;9.60;99.90;;;;;;5076675;28;20032;-78
2022/11/25 08:52:49;;;;;;;3.33;1.48;;;9.70;99.90;;;;;;5078359;28;20039;-79
2022/11/25 08:55:15;;;;;;;2.88;2.03;;;9.70;99.90;;;;;;5078061;28;20063;-79
2022/11/25 08:57:40;;;;;;;2.78;2.00;;;9.70;99.90;;;;;;5082545;28;20115;-79
2022/11/25 09:00:07;;;;;;;2.65;1.50;;;9.60;99.90;;;;;;5083595;28;20581;-78
2022/11/25 09:02:33;;;;;;;3.00;1.50;;;9.60;99.90;;;;;;5079886;28;20051;-79
2022/11/25 09:04:59;;;;;;;1.95;1.52;;;9.60;99.90;;;;;;5089375;28;20071;-79
2022/11/25 09:07:26;;;;;;;3.03;1.73;;;9.60;99.90;;;;;;5079844;28;20566;-79
2022/11/25 09:09:51;;;;;;;2.72;2.08;;;9.60;99.90;;;;;;5077614;28;20017;-79
2022/11/25 09:12:17;;;;;;;3.80;2.28;;;9.60;99.90;;;;;;5081557;28;20430;-79
2022/11/25 09:14:43;;;;;;;3.40;1.88;;;9.60;99.90;;;;;;5084443;28;20028;-78
2022/11/25 09:17:10;;;;;;;3.95;2.17;;;9.70;99.90;;;;;;5079439;28;20023;-79
2022/11/25 09:19:36;;;;;;;4.72;2.10;;;9.70;99.90;;;;;;5077214;28;20146;-79
2022/11/25 09:22:02;;;;;;;6.53;2.65;;;9.70;99.90;;;;;;5080334;28;20051;-79
2022/11/25 09:24:27;;;;;;;3.38;1.83;;;9.80;99.90;;;;;;5084115;28;20040;-79
2022/11/25 09:26:53;;;;;;;4.10;2.10;;;9.70;99.90;;;;;;5080099;28;20510;-79
2022/11/25 09:29:19;;;;;;;3.50;2.00;;;9.80;99.90;;;;;;5075442;28;20028;-79
2022/11/25 09:31:45;;;;;;;5.40;2.72;;;9.80;99.90;;;;;;5079133;28;20516;-79
2022/11/25 09:34:10;;;;;;;5.30;3.38;;;9.80;99.90;;;;;;5077305;28;20406;-79
2022/11/25 09:36:36;;;;;;;4.82;3.30;;;9.70;99.90;;;;;;5082940;28;20016;-79
2022/11/25 09:39:02;;;;;;;5.07;3.38;;;9.70;99.90;;;;;;5073617;28;20464;-79
2022/11/25 09:47:36;;;;;;;4.72;2.42;;;9.80;99.90;;;;;;5074352;28;20106;-79
2022/11/25 09:50:02;;;;;;;4.25;2.22;;;9.80;99.90;;;;;;5090234;28;20028;-79
2022/11/25 09:52:47;;;;;;;2.67;1.85;;;9.80;99.90;;;;;;5088746;28;20024;-79
2022/11/25 09:55:21;;;;;;;4.22;2.00;;;9.80;99.90;;;;;;5090154;28;20020;-79
2022/11/25 09:57:59;;;;;;;3.97;1.88;;;9.80;99.90;;;;;;5083276;28;20036;-79
2022/11/25 10:00:42;;;;;;;3.58;2.03;;;9.80;99.90;;;;;;5073385;28;20035;-79
2022/11/25 10:03:26;;;;;;;3.85;1.50;;;9.80;99.90;;;;;;5082452;28;20035;-79
2022/11/25 10:06:06;;;;;;;3.42;1.48;;;9.70;99.90;;;;;;5068556;28;20027;-79
2022/11/25 10:08:39;;;;;;;5.22;1.67;;;9.70;99.90;;;;;;5069701;28;20025;-79
2022/11/25 10:11:20;;;;;;;3.67;1.60;;;9.70;99.90;;;;;;5068641;28;20130;-79
2022/11/25 10:14:11;;;;;;;2.83;1.60;;;9.70;99.90;;;;;;5076547;28;20100;-79
2022/11/25 10:16:37;;;;;;;7.97;2.40;;;9.70;99.90;;;;;;5089978;28;20021;-79
2022/11/25 10:19:29;;;;;;;6.28;2.70;;;9.70;99.90;;;;;;5090285;28;20032;-79
2022/11/25 10:21:55;;;;;;;8.30;3.10;;;9.80;99.90;;;;;;5090226;28;20031;-79
2022/11/25 10:24:20;;;;;;;4.78;2.38;;;9.80;99.90;;;;;;5086038;28;20052;-79
2022/11/25 10:27:00;;;;;;;6.45;2.38;;;9.80;99.90;;;;;;5076709;28;20596;-79
2022/11/25 10:29:29;;;;;;;5.72;3.05;;;9.80;99.90;;;;;;5080692;28;20024;-79
2022/11/25 10:32:23;;;;;;;6.43;2.45;;;9.80;99.90;;;;;;5081467;28;20058;-79
2022/11/25 10:34:55;;;;;;;6.18;2.80;;;9.90;99.90;;;;;;5071164;28;20139;-79
2022/11/25 10:37:43;;;;;;;6.43;2.90;;;9.80;99.90;;;;;;5073328;28;20021;-78
2022/11/25 10:40:16;;;;;;;4.88;2.80;;;9.80;99.90;;;;;;5074854;28;20021;-78
2022/11/25 10:42:42;;;;;;;5.93;2.97;;;9.90;99.90;;;;;;5072738;28;20024;-80
2022/11/25 10:45:10;;;;;;;5.57;2.50;;;9.90;99.90;;;;;;5073161;28;20028;-78
2022/11/25 10:47:57;;;;;;;5.20;2.05;;;9.90;99.90;;;;;;5078442;28;20103;-80
2022/11/25 10:50:47;;;;;;;2.80;1.95;;;9.90;99.90;;;;;;5093389;28;20390;-78
2022/11/25 10:53:16;;;;;;;3.08;2.08;;;9.90;99.90;;;;;;5093514;28;20042;-80
2022/11/25 10:56:16;;;;;;;4.70;1.65;;;9.90;99.90;;;;;;5093355;28;20054;-80
2022/11/25 10:58:42;;;;;;;3.13;1.50;;;9.90;99.90;;;;;;5078237;28;20090;-78
2022/11/25 11:01:21;;;;;;;4.10;1.58;;;9.90;99.90;;;;;;5073320;28;20116;-80
2022/11/25 11:04:02;;;;;;;4.25;1.58;;;9.90;99.90;;;;;;5084897;28;20138;-78
2022/11/25 11:06:28;;;;;;;3.10;1.55;;;9.90;99.90;;;;;;5072522;28;20071;-78
2022/11/25 11:08:53;;;;;;;4.65;1.95;;;9.90;99.90;;;;;;5072712;28;20052;-78
2022/11/25 11:11:22;;;;;;;3.35;1.73;;;9.90;99.90;;;;;;5075131;28;20486;-78
2022/11/25 11:13:51;;;;;;;1.90;1.52;;;9.80;99.90;;;;;;5080020;28;20070;-78
2022/11/25 11:16:26;;;;;;;4.72;1.55;;;9.80;99.90;;;;;;5076669;28;20313;-78
2022/11/25 11:18:54;;;;;;;4.05;1.77;;;9.80;99.90;;;;;;5072452;28;20032;-80
2022/11/25 11:21:34;;;;;;;2.42;1.30;;;9.90;99.90;;;;;;5073249;28;20502;-78
2022/11/25 11:24:02;;;;;;;3.75;1.52;;;9.90;99.90;;;;;;5072490;28;20074;-80
2022/11/25 11:26:29;;;;;;;2.90;1.30;;;9.90;99.90;;;;;;5076196;28;20030;-78
2022/11/25 11:29:11;;;;;;;5.25;1.60;;;10.00;99.90;;;;;;5092232;28;20016;-78
2022/11/25 11:31:42;;;;;;;3.75;1.60;;;10.00;99.90;;;;;;5075768;28;20107;-78
2022/11/25 11:34:29;;;;;;;2.95;1.50;;;9.90;99.90;;;;;;5085721;28;20016;-77
2022/11/25 11:37:37;;;;;;;12.07;1.75;;;9.90;99.90;;;;;;5080645;28;20054;-80
2022/11/25 11:40:22;;;;;;;5.68;1.50;;;9.90;99.90;;;;;;5078892;28;20028;-78
2022/11/25 11:42:51;;;;;;;2.33;1.20;;;9.90;99.90;;;;;;5076289;28;20081;-79
2022/11/25 11:45:19;;;;;;;3.40;1.33;;;9.90;99.90;;;;;;5081939;28;20028;-78
2022/11/25 11:47:51;;;;;;;3.38;1.70;;;10.00;99.90;;;;;;5090990;28;20089;-78
2022/11/25 11:50:42;;;;;;;4.85;2.15;;;10.00;99.90;;;;;;5079341;28;20028;-78
2022/11/25 11:53:26;;;;;;;3.03;1.35;;;10.00;99.90;;;;;;5092586;28;20027;-77
2022/11/25 11:55:58;;;;;;;3.65;2.03;;;10.10;99.90;;;;;;5079252;28;20028;-78
2022/11/25 11:59:00;;;;;;;4.22;2.28;;;10.20;99.90;;;;;;5089125;28;20518;-78
2022/11/25 12:01:54;;;;;;;5.03;1.95;;;10.20;99.90;;;;;;5085066;28;20031;-78
2022/11/25 12:04:25;;;;;;;2.67;1.98;;;10.20;99.90;;;;;;5091058;28;20027;-78
2022/11/25 12:07:06;;;;;;;5.45;2.45;;;10.20;99.90;;;;;;5078774;28;20028;-78
2022/11/25 12:09:42;;;;;;;3.17;2.53;;;10.10;99.90;;;;;;5081135;28;20107;-78
2022/11/25 12:12:14;;;;;;;4.38;2.03;;;10.20;99.90;;;;;;5079881;28;20095;-78
2022/11/25 12:14:50;;;;;;;4.22;1.95;;;10.10;99.90;;;;;;5071464;28;20036;-78
2022/11/25 12:17:18;;;;;;;3.53;2.00;;;10.00;99.90;;;;;;5072102;28;20020;-78
2022/11/25 12:20:19;;;;;;;3.28;1.88;;;10.00;99.90;;;;;;5070382;28;20490;-78
2022/11/25 12:22:56;;;;;;;4.38;2.67;;;10.00;99.90;;;;;;5069300;28;20071;-78
2022/11/25 12:25:25;;;;;;;7.30;3.78;;;10.00;99.90;;;;;;5071768;28;20049;-78
2022/11/25 12:28:15;;;;;;;7.07;4.68;;;10.00;99.90;;;;;;5088622;28;20020;-78
2022/11/25 12:31:03;;;;;;;7.72;4.50;;;10.10;99.90;;;;;;5091256;28;20020;-78
2022/11/25 12:33:54;;;;;;;6.45;3.10;;;10.00;99.90;;;;;;5091397;28;20121;-78
2022/11/25 12:36:35;;;;;;;3.55;2.22;;;10.10;99.90;;;;;;5091622;28;20119;-78
2022/11/25 12:39:09;;;;;;;6.03;3.00;;;10.10;99.90;;;;;;5091097;28;20107;-78
2022/11/25 12:41:52;;;;;;;5.60;2.70;;;10.10;99.90;;;;;;5089831;28;20051;-78
2022/11/25 12:44:21;;;;;;;6.50;2.75;;;10.10;99.90;;;;;;5091380;28;20047;-78
2022/11/25 12:46:49;;;;;;;5.47;2.20;;;10.10;99.90;;;;;;5090984;28;20028;-78
2022/11/25 12:49:26;;;;;;;7.28;1.85;;;10.10;99.90;;;;;;5091585;28;20024;-78
2022/11/25 12:52:28;;;;;;;3.25;1.85;;;10.20;99.90;;;;;;5090349;28;20068;-78
2022/11/25 12:55:29;;;;;;;5.72;2.58;;;10.20;99.90;;;;;;5079315;28;20503;-78
2022/11/25 12:58:16;;;;;;;3.60;2.30;;;10.20;99.90;;;;;;5026547;28;20095;-77
2022/11/25 13:01:00;;;;;;;3.53;1.88;;;10.30;99.90;;;;;;5028680;28;20030;-77
2022/11/25 13:03:55;;;;;;;4.25;2.50;;;10.20;99.90;;;;;;5016685;28;20018;-78
2022/11/25 13:06:27;;;;;;;5.68;2.67;;;10.20;99.90;;;;;;5012160;28;20060;-78
2022/11/25 13:08:59;;;;;;;3.55;2.38;;;10.30;99.90;;;;;;5028460;28;20022;-78
2022/11/25 13:11:40;;;;;;;5.18;2.90;;;10.40;99.90;;;;;;5012004;28;20497;-78
2022/11/25 13:14:25;;;;;;;5.10;2.70;;;10.40;99.90;;;;;;5011972;28;20087;-78
2022/11/25 13:16:52;;;;;;;4.85;3.13;;;10.40;99.90;;;;;;5028337;28;20037;-78
2022/11/25 13:19:19;;;;;;;6.25;3.38;;;10.40;99.90;;;;;;5028522;28;20542;-79
2022/11/25 13:22:05;;;;;;;3.42;2.50;;;10.40;99.90;;;;;;5028451;28;20048;-78
2022/11/25 13:24:31;;;;;;;5.63;3.03;;;10.40;99.90;;;;;;5027979;28;20049;-77
2022/11/25 13:26:57;;;;;;;4.18;2.20;;;10.30;99.90;;;;;;5028336;28;20029;-78
2022/11/25 13:29:25;;;;;;;4.72;3.20;;;10.40;99.90;;;;;;5028367;28;20059;-78